Apple River, Illinois
Current Conditions -  °F | °C
As of 12:15 PM on Monday 22 Dec 2014 (Local Time) from KPVB Reporting Station
Broken Clouds Broken Clouds  
Wind Chill: 25°   Ceiling: 3400
Heat Index: 35°   Visibility: 4mi
Dew Point: 33°   Wind: 15mph
Humidity: 93%   Direction: 100°E
Pressure: 29.69"   Gusts: 20mph
Location:  42.51°N, 90.1°W
Report Text: KPVB 221815Z AUTO 10013G17KT 4SM BKN034 BKN040 02/01 A2969 RMK AO1 T00150005
Loading
Personal Weather Stations






























Interactive Weather Map New forecast layout! Learn more

10-Day Weather Forecast

Advertisements
Track Severe Weather on mobile